sensor_id;sensor_type;location;lat;lon;timestamp;pressure;altitude;pressure_sealevel;temperature;humidity
36386;BME280;24125;47.482;8.770;2022-12-18T00:01:52;97119.00;;;2.76;70.68
36386;BME280;24125;47.482;8.770;2022-12-18T00:04:27;97135.84;;;2.75;70.94
36386;BME280;24125;47.482;8.770;2022-12-18T00:07:00;97132.91;;;2.72;70.90
36386;BME280;24125;47.482;8.770;2022-12-18T00:09:33;97140.56;;;2.68;70.07
36386;BME280;24125;47.482;8.770;2022-12-18T00:12:11;97146.06;;;2.67;70.47
36386;BME280;24125;47.482;8.770;2022-12-18T00:14:46;97135.78;;;2.65;70.50
36386;BME280;24125;47.482;8.770;2022-12-18T00:17:19;97129.94;;;2.63;70.92
36386;BME280;24125;47.482;8.770;2022-12-18T00:19:53;97148.41;;;2.63;71.04
36386;BME280;24125;47.482;8.770;2022-12-18T00:22:26;97144.97;;;2.62;71.30
36386;BME280;24125;47.482;8.770;2022-12-18T00:25:00;97153.91;;;2.61;70.88
36386;BME280;24125;47.482;8.770;2022-12-18T00:27:32;97148.66;;;2.61;70.86
36386;BME280;24125;47.482;8.770;2022-12-18T00:30:07;97148.41;;;2.63;70.85
36386;BME280;24125;47.482;8.770;2022-12-18T00:32:40;97146.81;;;2.62;71.17
36386;BME280;24125;47.482;8.770;2022-12-18T00:35:15;97153.19;;;2.66;71.30
36386;BME280;24125;47.482;8.770;2022-12-18T00:37:48;97157.13;;;2.69;71.86
36386;BME280;24125;47.482;8.770;2022-12-18T00:40:21;97159.28;;;2.72;71.67
36386;BME280;24125;47.482;8.770;2022-12-18T00:42:53;97160.63;;;2.74;71.03
36386;BME280;24125;47.482;8.770;2022-12-18T00:45:30;97157.47;;;2.77;71.14
36386;BME280;24125;47.482;8.770;2022-12-18T00:48:04;97143.25;;;2.78;71.06
36386;BME280;24125;47.482;8.770;2022-12-18T00:50:38;97148.03;;;2.81;71.21
36386;BME280;24125;47.482;8.770;2022-12-18T00:53:11;97146.19;;;2.82;71.25
36386;BME280;24125;47.482;8.770;2022-12-18T00:55:45;97130.13;;;2.83;71.02
36386;BME280;24125;47.482;8.770;2022-12-18T00:58:18;97145.41;;;2.86;71.11
36386;BME280;24125;47.482;8.770;2022-12-18T01:00:51;97154.69;;;2.89;71.16
36386;BME280;24125;47.482;8.770;2022-12-18T01:03:24;97151.25;;;2.88;71.56
36386;BME280;24125;47.482;8.770;2022-12-18T01:05:59;97170.00;;;2.92;71.59
36386;BME280;24125;47.482;8.770;2022-12-18T01:08:31;97181.13;;;2.94;71.12
36386;BME280;24125;47.482;8.770;2022-12-18T01:11:07;97172.13;;;2.95;70.77
36386;BME280;24125;47.482;8.770;2022-12-18T01:13:41;97174.50;;;2.96;70.78
36386;BME280;24125;47.482;8.770;2022-12-18T01:16:16;97170.84;;;2.97;70.71
36386;BME280;24125;47.482;8.770;2022-12-18T01:18:51;97163.97;;;2.96;70.59
36386;BME280;24125;47.482;8.770;2022-12-18T01:21:26;97169.25;;;2.96;71.07
36386;BME280;24125;47.482;8.770;2022-12-18T01:23:59;97177.94;;;2.97;70.88
36386;BME280;24125;47.482;8.770;2022-12-18T01:26:32;97177.94;;;2.97;71.01
36386;BME280;24125;47.482;8.770;2022-12-18T01:29:05;97189.06;;;2.99;70.92
36386;BME280;24125;47.482;8.770;2022-12-18T01:31:37;97194.09;;;3.00;71.08
36386;BME280;24125;47.482;8.770;2022-12-18T01:34:10;97195.91;;;3.00;70.82
36386;BME280;24125;47.482;8.770;2022-12-18T01:36:45;97197.28;;;3.02;70.70
36386;BME280;24125;47.482;8.770;2022-12-18T01:39:18;97195.16;;;3.04;71.01
36386;BME280;24125;47.482;8.770;2022-12-18T01:41:51;97192.50;;;3.04;70.59
36386;BME280;24125;47.482;8.770;2022-12-18T01:44:56;97197.53;;;3.06;70.45
36386;BME280;24125;47.482;8.770;2022-12-18T01:47:33;97194.91;;;3.06;70.44
36386;BME280;24125;47.482;8.770;2022-12-18T01:50:11;97197.53;;;3.06;70.84
36386;BME280;24125;47.482;8.770;2022-12-18T01:52:50;97202.81;;;3.06;70.58
36386;BME280;24125;47.482;8.770;2022-12-18T01:55:26;97205.47;;;3.06;70.84
36386;BME280;24125;47.482;8.770;2022-12-18T01:58:00;97203.88;;;3.05;70.73
36386;BME280;24125;47.482;8.770;2022-12-18T02:00:33;97209.94;;;3.06;70.65
36386;BME280;24125;47.482;8.770;2022-12-18T02:03:06;97204.66;;;3.06;70.67
36386;BME280;24125;47.482;8.770;2022-12-18T02:05:44;97194.91;;;3.06;70.32
36386;BME280;24125;47.482;8.770;2022-12-18T02:08:23;97191.22;;;3.07;70.26
36386;BME280;24125;47.482;8.770;2022-12-18T02:11:05;97199.69;;;3.09;70.09
36386;BME280;24125;47.482;8.770;2022-12-18T02:13:44;97204.41;;;3.07;69.98
36386;BME280;24125;47.482;8.770;2022-12-18T02:16:21;97203.63;;;3.07;69.79
36386;BME280;24125;47.482;8.770;2022-12-18T02:18:59;97201.22;;;3.05;70.05
36386;BME280;24125;47.482;8.770;2022-12-18T02:21:44;97197.00;;;3.04;69.54
36386;BME280;24125;47.482;8.770;2022-12-18T02:24:28;97195.94;;;3.05;69.55
36386;BME280;24125;47.482;8.770;2022-12-18T02:27:06;97196.47;;;3.02;69.95
36386;BME280;24125;47.482;8.770;2022-12-18T02:29:43;97198.31;;;3.01;69.57
36386;BME280;24125;47.482;8.770;2022-12-18T02:32:20;97203.03;;;2.99;69.65
36386;BME280;24125;47.482;8.770;2022-12-18T02:34:56;97207.75;;;2.97;70.25
36386;BME280;24125;47.482;8.770;2022-12-18T02:37:30;97207.22;;;2.95;69.85
36386;BME280;24125;47.482;8.770;2022-12-18T02:40:06;97207.22;;;2.95;70.32
36386;BME280;24125;47.482;8.770;2022-12-18T02:42:41;97200.09;;;2.96;70.04
36386;BME280;24125;47.482;8.770;2022-12-18T02:45:14;97191.13;;;2.97;70.00
36386;BME280;24125;47.482;8.770;2022-12-18T02:47:49;97195.38;;;2.98;70.45
36386;BME280;24125;47.482;8.770;2022-12-18T02:50:29;97204.09;;;2.98;70.31
36386;BME280;24125;47.482;8.770;2022-12-18T02:53:10;97209.59;;;2.97;70.01
36386;BME280;24125;47.482;8.770;2022-12-18T02:55:54;97201.19;;;3.00;70.14
36386;BME280;24125;47.482;8.770;2022-12-18T02:58:35;97214.38;;;3.00;69.93
36386;BME280;24125;47.482;8.770;2022-12-18T03:01:16;97217.28;;;2.98;69.87
36386;BME280;24125;47.482;8.770;2022-12-18T03:03:54;97224.38;;;2.98;70.14
36386;BME280;24125;47.482;8.770;2022-12-18T03:06:32;97224.34;;;2.93;69.83
36386;BME280;24125;47.482;8.770;2022-12-18T03:09:09;97228.28;;;2.90;70.04
36386;BME280;24125;47.482;8.770;2022-12-18T03:11:46;97218.78;;;2.89;69.88
36386;BME280;24125;47.482;8.770;2022-12-18T03:14:40;97209.50;;;2.87;70.05
36386;BME280;24125;47.482;8.770;2022-12-18T03:17:17;97209.22;;;2.83;70.17
36386;BME280;24125;47.482;8.770;2022-12-18T03:19:54;97218.44;;;2.81;70.02
36386;BME280;24125;47.482;8.770;2022-12-18T03:22:32;97226.09;;;2.82;69.77
36386;BME280;24125;47.482;8.770;2022-12-18T03:25:08;97222.13;;;2.80;70.22
36386;BME280;24125;47.482;8.770;2022-12-18T03:27:44;97226.59;;;2.79;70.15
36386;BME280;24125;47.482;8.770;2022-12-18T03:30:20;97233.69;;;2.79;70.05
36386;BME280;24125;47.482;8.770;2022-12-18T03:32:58;97221.31;;;2.79;70.07
36386;BME280;24125;47.482;8.770;2022-12-18T03:35:37;97222.63;;;2.77;70.03
36386;BME280;24125;47.482;8.770;2022-12-18T03:38:12;97239.75;;;2.74;70.14
36386;BME280;24125;47.482;8.770;2022-12-18T03:40:53;97242.38;;;2.74;69.92
36386;BME280;24125;47.482;8.770;2022-12-18T03:43:35;97244.22;;;2.74;69.67
36386;BME280;24125;47.482;8.770;2022-12-18T03:46:18;97246.28;;;2.72;70.20
36386;BME280;24125;47.482;8.770;2022-12-18T03:49:01;97249.72;;;2.72;70.20
36386;BME280;24125;47.482;8.770;2022-12-18T03:51:42;97242.88;;;2.71;70.06
36386;BME280;24125;47.482;8.770;2022-12-18T03:54:18;97245.22;;;2.68;69.92
36386;BME280;24125;47.482;8.770;2022-12-18T03:56:58;97252.84;;;2.69;70.20
36386;BME280;24125;47.482;8.770;2022-12-18T03:59:34;97253.38;;;2.66;70.21
36386;BME280;24125;47.482;8.770;2022-12-18T04:02:09;97254.97;;;2.67;69.29
36386;BME280;24125;47.482;8.770;2022-12-18T04:04:44;97259.13;;;2.63;69.57
36386;BME280;24125;47.482;8.770;2022-12-18T04:07:20;97251.97;;;2.58;69.68
36386;BME280;24125;47.482;8.770;2022-12-18T04:09:56;97259.09;;;2.58;69.70
36386;BME280;24125;47.482;8.770;2022-12-18T04:12:30;97256.38;;;2.53;69.85
36386;BME280;24125;47.482;8.770;2022-12-18T04:15:04;97259.81;;;2.53;69.99
36386;BME280;24125;47.482;8.770;2022-12-18T04:17:40;97258.22;;;2.52;70.31
36386;BME280;24125;47.482;8.770;2022-12-18T04:20:16;97257.69;;;2.50;70.12
36386;BME280;24125;47.482;8.770;2022-12-18T04:22:49;97263.72;;;2.51;70.68
36386;BME280;24125;47.482;8.770;2022-12-18T04:25:22;97271.91;;;2.49;70.29
36386;BME280;24125;47.482;8.770;2022-12-18T04:27:55;97265.84;;;2.49;70.60
36386;BME280;24125;47.482;8.770;2022-12-18T04:30:28;97278.50;;;2.52;70.52
36386;BME280;24125;47.482;8.770;2022-12-18T04:33:02;97275.88;;;2.52;70.54
36386;BME280;24125;47.482;8.770;2022-12-18T04:35:35;97282.75;;;2.53;70.69
36386;BME280;24125;47.482;8.770;2022-12-18T04:38:08;97283.53;;;2.53;70.52
36386;BME280;24125;47.482;8.770;2022-12-18T04:40:42;97290.41;;;2.54;70.07
36386;BME280;24125;47.482;8.770;2022-12-18T04:43:15;97289.13;;;2.57;70.59
36386;BME280;24125;47.482;8.770;2022-12-18T04:45:48;97296.78;;;2.58;70.49
36386;BME280;24125;47.482;8.770;2022-12-18T04:48:23;97291.53;;;2.58;70.42
36386;BME280;24125;47.482;8.770;2022-12-18T04:50:56;97296.78;;;2.58;70.16
36386;BME280;24125;47.482;8.770;2022-12-18T04:53:28;97298.38;;;2.59;70.56
36386;BME280;24125;47.482;8.770;2022-12-18T04:56:03;97294.44;;;2.62;70.62
36386;BME280;24125;47.482;8.770;2022-12-18T04:58:37;97293.41;;;2.63;70.81
36386;BME280;24125;47.482;8.770;2022-12-18T05:01:11;97290.75;;;2.63;70.57
36386;BME280;24125;47.482;8.770;2022-12-18T05:03:46;97283.41;;;2.65;70.73
36386;BME280;24125;47.482;8.770;2022-12-18T05:06:20;97281.56;;;2.65;70.67
36386;BME280;24125;47.482;8.770;2022-12-18T05:08:53;97287.13;;;2.69;70.90
36386;BME280;24125;47.482;8.770;2022-12-18T05:11:25;97278.19;;;2.70;70.56
36386;BME280;24125;47.482;8.770;2022-12-18T05:13:58;97270.81;;;2.72;70.75
36386;BME280;24125;47.482;8.770;2022-12-18T05:16:31;97273.47;;;2.72;70.48
36386;BME280;24125;47.482;8.770;2022-12-18T05:19:05;97280.88;;;2.75;70.51
36386;BME280;24125;47.482;8.770;2022-12-18T05:21:38;97288.81;;;2.75;70.50
36386;BME280;24125;47.482;8.770;2022-12-18T05:24:11;97289.59;;;2.76;70.38
36386;BME280;24125;47.482;8.770;2022-12-18T05:26:44;97295.66;;;2.76;69.82
36386;BME280;24125;47.482;8.770;2022-12-18T05:29:17;97297.50;;;2.76;69.98
36386;BME280;24125;47.482;8.770;2022-12-18T05:31:50;97298.56;;;2.75;70.10
36386;BME280;24125;47.482;8.770;2022-12-18T05:34:24;97310.13;;;2.74;70.00
36386;BME280;24125;47.482;8.770;2022-12-18T05:36:57;97307.97;;;2.71;70.33
36386;BME280;24125;47.482;8.770;2022-12-18T05:39:30;97306.16;;;2.71;70.32
36386;BME280;24125;47.482;8.770;2022-12-18T05:42:03;97319.34;;;2.71;70.41
36386;BME280;24125;47.482;8.770;2022-12-18T05:44:36;97312.22;;;2.72;70.17
36386;BME280;24125;47.482;8.770;2022-12-18T05:47:09;97315.66;;;2.72;69.72
36386;BME280;24125;47.482;8.770;2022-12-18T05:49:43;97315.91;;;2.71;70.27
36386;BME280;24125;47.482;8.770;2022-12-18T05:52:16;97317.72;;;2.70;69.91
36386;BME280;24125;47.482;8.770;2022-12-18T05:54:49;97315.91;;;2.71;70.16
36386;BME280;24125;47.482;8.770;2022-12-18T05:57:21;97312.47;;;2.70;70.48
36386;BME280;24125;47.482;8.770;2022-12-18T05:59:54;97312.22;;;2.72;70.56
36386;BME280;24125;47.482;8.770;2022-12-18T06:02:27;97312.78;;;2.74;70.43
36386;BME280;24125;47.482;8.770;2022-12-18T06:05:02;97311.72;;;2.75;70.45
36386;BME280;24125;47.482;8.770;2022-12-18T06:07:35;97311.72;;;2.75;70.46
36386;BME280;24125;47.482;8.770;2022-12-18T06:10:08;97315.41;;;2.74;70.03
36386;BME280;24125;47.482;8.770;2022-12-18T06:12:40;97317.50;;;2.72;69.86
36386;BME280;24125;47.482;8.770;2022-12-18T06:15:13;97310.63;;;2.71;69.89
36386;BME280;24125;47.482;8.770;2022-12-18T06:17:47;97314.31;;;2.70;69.57
36386;BME280;24125;47.482;8.770;2022-12-18T06:20:22;97324.03;;;2.69;69.25
36386;BME280;24125;47.482;8.770;2022-12-18T06:23:00;97326.41;;;2.65;69.60
36386;BME280;24125;47.482;8.770;2022-12-18T06:25:33;97331.13;;;2.63;69.59
36386;BME280;24125;47.482;8.770;2022-12-18T06:28:09;97329.75;;;2.61;69.74
36386;BME280;24125;47.482;8.770;2022-12-18T06:30:43;97332.66;;;2.59;69.55
36386;BME280;24125;47.482;8.770;2022-12-18T06:33:16;97329.72;;;2.56;69.64
36386;BME280;24125;47.482;8.770;2022-12-18T06:35:50;97334.97;;;2.56;69.81
36386;BME280;24125;47.482;8.770;2022-12-18T06:38:31;97331.00;;;2.53;69.28
36386;BME280;24125;47.482;8.770;2022-12-18T06:41:06;97333.16;;;2.56;69.86
36386;BME280;24125;47.482;8.770;2022-12-18T06:43:39;97336.03;;;2.55;69.92
36386;BME280;24125;47.482;8.770;2022-12-18T06:46:14;97337.84;;;2.54;69.53
36386;BME280;24125;47.482;8.770;2022-12-18T06:48:48;97341.53;;;2.53;69.46
36386;BME280;24125;47.482;8.770;2022-12-18T06:51:24;97343.38;;;2.53;69.50
36386;BME280;24125;47.482;8.770;2022-12-18T06:53:57;97353.13;;;2.52;69.54
36386;BME280;24125;47.482;8.770;2022-12-18T06:56:30;97355.22;;;2.50;69.90
36386;BME280;24125;47.482;8.770;2022-12-18T06:59:03;97362.34;;;2.50;69.98
36386;BME280;24125;47.482;8.770;2022-12-18T07:01:35;97367.28;;;2.46;69.75
36386;BME280;24125;47.482;8.770;2022-12-18T07:04:09;97376.78;;;2.47;69.54
36386;BME280;24125;47.482;8.770;2022-12-18T07:06:43;97369.91;;;2.46;69.69
36386;BME280;24125;47.482;8.770;2022-12-18T07:09:16;97382.28;;;2.46;70.04
36386;BME280;24125;47.482;8.770;2022-12-18T07:11:49;97387.00;;;2.44;69.71
36386;BME280;24125;47.482;8.770;2022-12-18T07:14:21;97385.41;;;2.43;69.69
36386;BME280;24125;47.482;8.770;2022-12-18T07:16:54;97386.72;;;2.40;69.78
36386;BME280;24125;47.482;8.770;2022-12-18T07:19:27;97388.31;;;2.41;70.23
36386;BME280;24125;47.482;8.770;2022-12-18T07:22:02;97393.59;;;2.41;69.73
36386;BME280;24125;47.482;8.770;2022-12-18T07:24:36;97393.81;;;2.40;69.81
36386;BME280;24125;47.482;8.770;2022-12-18T07:27:09;97398.53;;;2.38;69.95
36386;BME280;24125;47.482;8.770;2022-12-18T07:29:42;97405.63;;;2.37;70.12
36386;BME280;24125;47.482;8.770;2022-12-18T07:32:15;97410.13;;;2.37;70.03
36386;BME280;24125;47.482;8.770;2022-12-18T07:34:48;97410.91;;;2.37;69.84
36386;BME280;24125;47.482;8.770;2022-12-18T07:37:23;97407.47;;;2.37;70.58
36386;BME280;24125;47.482;8.770;2022-12-18T07:39:55;97404.59;;;2.38;70.60
36386;BME280;24125;47.482;8.770;2022-12-18T07:42:28;97405.69;;;2.42;70.67
36386;BME280;24125;47.482;8.770;2022-12-18T07:45:05;97400.28;;;2.49;70.77
36386;BME280;24125;47.482;8.770;2022-12-18T07:47:38;97399.53;;;2.53;71.07
36386;BME280;24125;47.482;8.770;2022-12-18T07:50:12;97395.94;;;2.59;71.11
36386;BME280;24125;47.482;8.770;2022-12-18T07:52:47;97401.03;;;2.66;71.28
36386;BME280;24125;47.482;8.770;2022-12-18T07:55:20;97404.28;;;2.73;71.54
36386;BME280;24125;47.482;8.770;2022-12-18T07:57:52;97400.88;;;2.78;71.55
36386;BME280;24125;47.482;8.770;2022-12-18T08:00:31;97409.97;;;2.87;71.60
36386;BME280;24125;47.482;8.770;2022-12-18T08:03:04;97410.03;;;2.92;71.33
36386;BME280;24125;47.482;8.770;2022-12-18T08:05:37;97414.09;;;2.99;71.14
36386;BME280;24125;47.482;8.770;2022-12-18T08:08:11;97420.22;;;3.05;70.74
36386;BME280;24125;47.482;8.770;2022-12-18T08:10:44;97415.50;;;3.07;70.71
36386;BME280;24125;47.482;8.770;2022-12-18T08:13:18;97426.34;;;3.11;70.75
36386;BME280;24125;47.482;8.770;2022-12-18T08:15:59;97431.44;;;3.17;70.59
36386;BME280;24125;47.482;8.770;2022-12-18T08:18:33;97430.69;;;3.22;70.61
36386;BME280;24125;47.482;8.770;2022-12-18T08:21:10;97429.41;;;3.24;70.47
36386;BME280;24125;47.482;8.770;2022-12-18T08:23:44;97426.28;;;3.27;70.53
36386;BME280;24125;47.482;8.770;2022-12-18T08:26:19;97428.41;;;3.30;70.32
36386;BME280;24125;47.482;8.770;2022-12-18T08:28:53;97436.63;;;3.34;70.85
36386;BME280;24125;47.482;8.770;2022-12-18T08:31:28;97438.22;;;3.35;70.51
36386;BME280;24125;47.482;8.770;2022-12-18T08:34:02;97442.19;;;3.37;70.52
36386;BME280;24125;47.482;8.770;2022-12-18T08:36:35;97442.50;;;3.41;70.21
36386;BME280;24125;47.482;8.770;2022-12-18T08:39:09;97435.94;;;3.44;70.39
36386;BME280;24125;47.482;8.770;2022-12-18T08:41:42;97428.59;;;3.46;70.41
36386;BME280;24125;47.482;8.770;2022-12-18T08:44:40;97431.75;;;3.48;70.70
36386;BME280;24125;47.482;8.770;2022-12-18T08:47:12;97439.19;;;3.51;70.54
36386;BME280;24125;47.482;8.770;2022-12-18T08:49:45;97435.50;;;3.52;70.46
36386;BME280;24125;47.482;8.770;2022-12-18T08:52:18;97443.69;;;3.55;70.57
36386;BME280;24125;47.482;8.770;2022-12-18T08:54:52;97444.81;;;3.59;70.46
36386;BME280;24125;47.482;8.770;2022-12-18T08:57:25;97437.69;;;3.60;70.29
36386;BME280;24125;47.482;8.770;2022-12-18T08:59:58;97434.28;;;3.64;70.32
36386;BME280;24125;47.482;8.770;2022-12-18T09:02:30;97425.31;;;3.65;70.52
36386;BME280;24125;47.482;8.770;2022-12-18T09:05:04;97409.78;;;3.69;70.70
36386;BME280;24125;47.482;8.770;2022-12-18T09:07:37;97415.91;;;3.74;70.68
36386;BME280;24125;47.482;8.770;2022-12-18T09:10:11;97415.16;;;3.79;71.07
36386;BME280;24125;47.482;8.770;2022-12-18T09:12:44;97408.31;;;3.83;70.95
36386;BME280;24125;47.482;8.770;2022-12-18T09:15:18;97412.59;;;3.89;71.06
36386;BME280;24125;47.482;8.770;2022-12-18T09:17:52;97405.75;;;3.93;71.18
36386;BME280;24125;47.482;8.770;2022-12-18T09:20:26;97402.09;;;3.99;71.05
36386;BME280;24125;47.482;8.770;2022-12-18T09:22:59;97410.06;;;4.04;70.99
36386;BME280;24125;47.482;8.770;2022-12-18T09:25:34;97412.25;;;4.12;70.91
36386;BME280;24125;47.482;8.770;2022-12-18T09:28:11;97406.19;;;4.17;70.76
36386;BME280;24125;47.482;8.770;2022-12-18T09:30:45;97403.59;;;4.22;70.42
36386;BME280;24125;47.482;8.770;2022-12-18T09:33:18;97407.59;;;4.30;70.58
36386;BME280;24125;47.482;8.770;2022-12-18T09:35:51;97412.41;;;4.38;70.65
36386;BME280;24125;47.482;8.770;2022-12-18T09:38:24;97416.66;;;4.44;70.40
36386;BME280;24125;47.482;8.770;2022-12-18T09:41:03;97417.78;;;4.53;70.25
36386;BME280;24125;47.482;8.770;2022-12-18T09:43:41;97415.69;;;4.60;70.04
36386;BME280;24125;47.482;8.770;2022-12-18T09:46:19;97411.78;;;4.68;69.78
36386;BME280;24125;47.482;8.770;2022-12-18T09:49:00;97415.53;;;4.77;69.89
36386;BME280;24125;47.482;8.770;2022-12-18T09:51:36;97424.28;;;4.82;69.74
36386;BME280;24125;47.482;8.770;2022-12-18T09:54:12;97420.63;;;4.88;69.18
36386;BME280;24125;47.482;8.770;2022-12-18T09:56:48;97424.34;;;4.92;69.12
36386;BME280;24125;47.482;8.770;2022-12-18T09:59:24;97421.72;;;4.98;68.86
36386;BME280;24125;47.482;8.770;2022-12-18T10:01:58;97423.06;;;5.00;68.73
36386;BME280;24125;47.482;8.770;2022-12-18T10:04:32;97420.41;;;5.00;68.91
36386;BME280;24125;47.482;8.770;2022-12-18T10:07:10;97417.25;;;5.08;68.32
36386;BME280;24125;47.482;8.770;2022-12-18T10:09:49;97424.16;;;5.09;69.06
36386;BME280;24125;47.482;8.770;2022-12-18T10:12:32;97419.91;;;5.13;68.63
36386;BME280;24125;47.482;8.770;2022-12-18T10:15:07;97417.81;;;5.15;68.27
36386;BME280;24125;47.482;8.770;2022-12-18T10:17:49;97417.56;;;5.17;67.81
36386;BME280;24125;47.482;8.770;2022-12-18T10:20:29;97424.44;;;5.18;67.84
36386;BME280;24125;47.482;8.770;2022-12-18T10:23:15;97417.56;;;5.17;67.78
36386;BME280;24125;47.482;8.770;2022-12-18T10:25:55;97413.06;;;5.17;68.13
36386;BME280;24125;47.482;8.770;2022-12-18T10:28:35;97413.84;;;5.18;68.21
36386;BME280;24125;47.482;8.770;2022-12-18T10:31:14;97418.09;;;5.19;68.77
36386;BME280;24125;47.482;8.770;2022-12-18T10:33:48;97423.91;;;5.21;68.28
36386;BME280;24125;47.482;8.770;2022-12-18T10:36:23;97424.19;;;5.24;68.61
36386;BME280;24125;47.482;8.770;2022-12-18T10:39:14;97427.91;;;5.28;68.57
36386;BME280;24125;47.482;8.770;2022-12-18T10:41:48;97430.03;;;5.31;68.77
36386;BME280;24125;47.482;8.770;2022-12-18T10:44:23;97427.94;;;5.34;68.12
36386;BME280;24125;47.482;8.770;2022-12-18T10:47:03;97428.72;;;5.39;68.29
36386;BME280;24125;47.482;8.770;2022-12-18T10:49:52;97433.50;;;5.42;67.90
36386;BME280;24125;47.482;8.770;2022-12-18T10:52:27;97440.91;;;5.45;68.48
36386;BME280;24125;47.482;8.770;2022-12-18T10:55:03;97433.25;;;5.49;68.46
36386;BME280;24125;47.482;8.770;2022-12-18T10:57:37;97438.84;;;5.52;68.41
36386;BME280;24125;47.482;8.770;2022-12-18T11:00:28;97430.09;;;5.57;68.13
36386;BME280;24125;47.482;8.770;2022-12-18T11:03:01;97429.84;;;5.58;68.17
36386;BME280;24125;47.482;8.770;2022-12-18T11:05:35;97428.22;;;5.62;68.36
36386;BME280;24125;47.482;8.770;2022-12-18T11:08:20;97426.16;;;5.69;67.56
36386;BME280;24125;47.482;8.770;2022-12-18T11:10:54;97421.09;;;5.73;68.63
36386;BME280;24125;47.482;8.770;2022-12-18T11:13:28;97426.13;;;5.80;68.47
36386;BME280;24125;47.482;8.770;2022-12-18T11:16:04;97421.13;;;5.83;68.82
36386;BME280;24125;47.482;8.770;2022-12-18T11:18:37;97421.94;;;5.89;68.29
36386;BME280;24125;47.482;8.770;2022-12-18T11:21:12;97423.28;;;5.91;68.40
36386;BME280;24125;47.482;8.770;2022-12-18T11:23:49;97416.09;;;5.97;67.92
36386;BME280;24125;47.482;8.770;2022-12-18T11:26:33;97401.28;;;6.01;67.72
36386;BME280;24125;47.482;8.770;2022-12-18T11:29:09;97407.91;;;6.03;67.84
36386;BME280;24125;47.482;8.770;2022-12-18T11:31:44;97403.66;;;6.07;67.99
36386;BME280;24125;47.482;8.770;2022-12-18T11:34:22;97395.97;;;6.11;67.83
36386;BME280;24125;47.482;8.770;2022-12-18T11:37:02;97386.41;;;6.15;68.13
36386;BME280;24125;47.482;8.770;2022-12-18T11:39:37;97381.38;;;6.19;68.46
36386;BME280;24125;47.482;8.770;2022-12-18T11:42:17;97383.75;;;6.25;67.68
36386;BME280;24125;47.482;8.770;2022-12-18T11:44:55;97382.16;;;6.29;68.49
36386;BME280;24125;47.482;8.770;2022-12-18T11:47:38;97380.28;;;6.35;67.59
36386;BME280;24125;47.482;8.770;2022-12-18T11:50:16;97365.44;;;6.39;68.17
36386;BME280;24125;47.482;8.770;2022-12-18T11:52:50;97358.78;;;6.41;67.98
36386;BME280;24125;47.482;8.770;2022-12-18T11:55:38;97362.22;;;6.47;67.43
36386;BME280;24125;47.482;8.770;2022-12-18T12:01:28;97370.44;;;6.56;66.41
36386;BME280;24125;47.482;8.770;2022-12-18T12:04:31;97371.72;;;6.58;66.44
36386;BME280;24125;47.482;8.770;2022-12-18T12:07:17;97377.56;;;6.60;66.61
36386;BME280;24125;47.482;8.770;2022-12-18T12:10:00;97374.38;;;6.63;66.98
36386;BME280;24125;47.482;8.770;2022-12-18T12:12:43;97379.44;;;6.65;66.69
36386;BME280;24125;47.482;8.770;2022-12-18T12:15:33;97384.16;;;6.68;65.91
36386;BME280;24125;47.482;8.770;2022-12-18T12:18:18;97387.63;;;6.68;66.71
36386;BME280;24125;47.482;8.770;2022-12-18T12:21:04;97374.09;;;6.70;66.29
36386;BME280;24125;47.482;8.770;2022-12-18T12:23:44;97378.06;;;6.72;66.47
36386;BME280;24125;47.482;8.770;2022-12-18T12:26:22;97367.19;;;6.74;66.67
36386;BME280;24125;47.482;8.770;2022-12-18T12:29:05;97368.47;;;6.76;67.18
36386;BME280;24125;47.482;8.770;2022-12-18T12:32:02;97367.44;;;6.77;66.36
36386;BME280;24125;47.482;8.770;2022-12-18T12:34:41;97359.19;;;6.79;66.77
36386;BME280;24125;47.482;8.770;2022-12-18T12:37:25;97353.34;;;6.82;66.81
36386;BME280;24125;47.482;8.770;2022-12-18T12:40:03;97345.38;;;6.82;66.34
36386;BME280;24125;47.482;8.770;2022-12-18T12:42:59;97342.44;;;6.83;66.44
36386;BME280;24125;47.482;8.770;2022-12-18T12:45:47;97348.53;;;6.84;66.51
36386;BME280;24125;47.482;8.770;2022-12-18T12:48:32;97349.06;;;6.86;65.81
36386;BME280;24125;47.482;8.770;2022-12-18T12:51:14;97349.63;;;6.83;66.30
36386;BME280;24125;47.482;8.770;2022-12-18T12:53:51;97353.84;;;6.84;66.57
36386;BME280;24125;47.482;8.770;2022-12-18T12:56:36;97337.13;;;6.83;66.45
36386;BME280;24125;47.482;8.770;2022-12-18T12:59:15;97344.31;;;6.83;66.09
36386;BME280;24125;47.482;8.770;2022-12-18T13:01:57;97340.88;;;6.82;66.18
36386;BME280;24125;47.482;8.770;2022-12-18T13:04:36;97336.09;;;6.79;65.66
36386;BME280;24125;47.482;8.770;2022-12-18T13:07:15;97329.47;;;6.77;65.44
36386;BME280;24125;47.482;8.770;2022-12-18T13:10:13;97339.28;;;6.76;65.25
36386;BME280;24125;47.482;8.770;2022-12-18T13:12:56;97341.19;;;6.71;65.26
36386;BME280;24125;47.482;8.770;2022-12-18T13:15:33;97343.56;;;6.67;65.63
36386;BME280;24125;47.482;8.770;2022-12-18T13:18:15;97350.75;;;6.62;65.59
36386;BME280;24125;47.482;8.770;2022-12-18T13:20:51;97347.34;;;6.56;65.92
36386;BME280;24125;47.482;8.770;2022-12-18T13:23:39;97347.88;;;6.53;66.08
36386;BME280;24125;47.482;8.770;2022-12-18T13:26:32;97350.56;;;6.48;64.91
36386;BME280;24125;47.482;8.770;2022-12-18T13:29:06;97353.47;;;6.41;65.89
36386;BME280;24125;47.482;8.770;2022-12-18T13:32:20;97353.47;;;6.41;65.51
36386;BME280;24125;47.482;8.770;2022-12-18T13:35:37;97351.91;;;6.35;65.87
36386;BME280;24125;47.482;8.770;2022-12-18T13:38:21;97351.38;;;6.33;66.69
36386;BME280;24125;47.482;8.770;2022-12-18T13:40:57;97346.34;;;6.32;67.00
36386;BME280;24125;47.482;8.770;2022-12-18T13:43:34;97337.56;;;6.31;67.39
36386;BME280;24125;47.482;8.770;2022-12-18T13:46:23;97340.50;;;6.35;67.28
36386;BME280;24125;47.482;8.770;2022-12-18T13:49:02;97344.75;;;6.36;67.14
36386;BME280;24125;47.482;8.770;2022-12-18T13:51:41;97338.63;;;6.35;67.24
36386;BME280;24125;47.482;8.770;2022-12-18T13:54:19;97348.72;;;6.38;66.81
36386;BME280;24125;47.482;8.770;2022-12-18T13:56:54;97347.13;;;6.37;67.64
36386;BME280;24125;47.482;8.770;2022-12-18T13:59:35;97343.69;;;6.37;67.37
36386;BME280;24125;47.482;8.770;2022-12-18T14:02:13;97336.53;;;6.37;67.13
36386;BME280;24125;47.482;8.770;2022-12-18T14:04:48;97339.16;;;6.32;67.43